sensor_id;sensor_type;location;lat;lon;timestamp;P1;durP1;ratioP1;P2;durP2;ratioP2
65328;SDS011;51941;52.210;5.158;2022-11-18T00:02:13;2.03;;;1.42;;
65328;SDS011;51941;52.210;5.158;2022-11-18T00:04:40;2.08;;;1.30;;
65328;SDS011;51941;52.210;5.158;2022-11-18T00:07:07;2.90;;;1.48;;
65328;SDS011;51941;52.210;5.158;2022-11-18T00:09:33;4.65;;;1.83;;
65328;SDS011;51941;52.210;5.158;2022-11-18T00:12:00;6.78;;;1.80;;
65328;SDS011;51941;52.210;5.158;2022-11-18T00:14:45;3.28;;;1.85;;
65328;SDS011;51941;52.210;5.158;2022-11-18T00:17:11;2.83;;;1.70;;
65328;SDS011;51941;52.210;5.158;2022-11-18T00:19:40;4.53;;;1.45;;
65328;SDS011;51941;52.210;5.158;2022-11-18T00:22:07;2.28;;;1.48;;
65328;SDS011;51941;52.210;5.158;2022-11-18T00:24:38;3.53;;;1.65;;
65328;SDS011;51941;52.210;5.158;2022-11-18T00:27:05;2.53;;;1.70;;
65328;SDS011;51941;52.210;5.158;2022-11-18T00:29:32;3.47;;;2.13;;
65328;SDS011;51941;52.210;5.158;2022-11-18T00:31:59;4.47;;;2.08;;
65328;SDS011;51941;52.210;5.158;2022-11-18T00:34:27;3.78;;;1.42;;
65328;SDS011;51941;52.210;5.158;2022-11-18T00:36:54;2.25;;;1.33;;
65328;SDS011;51941;52.210;5.158;2022-11-18T00:39:20;4.13;;;1.45;;
65328;SDS011;51941;52.210;5.158;2022-11-18T00:41:47;4.32;;;1.85;;
65328;SDS011;51941;52.210;5.158;2022-11-18T00:44:32;4.88;;;1.90;;
65328;SDS011;51941;52.210;5.158;2022-11-18T00:46:59;3.72;;;1.52;;
65328;SDS011;51941;52.210;5.158;2022-11-18T00:49:25;3.25;;;1.67;;
65328;SDS011;51941;52.210;5.158;2022-11-18T00:51:54;3.08;;;1.75;;
65328;SDS011;51941;52.210;5.158;2022-11-18T00:54:20;3.17;;;1.73;;
65328;SDS011;51941;52.210;5.158;2022-11-18T00:56:47;2.72;;;1.85;;
65328;SDS011;51941;52.210;5.158;2022-11-18T00:59:14;3.58;;;1.60;;
65328;SDS011;51941;52.210;5.158;2022-11-18T01:01:40;2.28;;;1.40;;
65328;SDS011;51941;52.210;5.158;2022-11-18T01:04:07;2.55;;;1.38;;
65328;SDS011;51941;52.210;5.158;2022-11-18T01:06:35;3.65;;;1.50;;
65328;SDS011;51941;52.210;5.158;2022-11-18T01:09:02;4.15;;;1.20;;
65328;SDS011;51941;52.210;5.158;2022-11-18T01:11:29;3.35;;;1.80;;
65328;SDS011;51941;52.210;5.158;2022-11-18T01:14:13;2.65;;;1.48;;
65328;SDS011;51941;52.210;5.158;2022-11-18T01:16:40;2.63;;;1.30;;
65328;SDS011;51941;52.210;5.158;2022-11-18T01:19:06;6.28;;;2.10;;
65328;SDS011;51941;52.210;5.158;2022-11-18T01:21:33;4.03;;;1.85;;
65328;SDS011;51941;52.210;5.158;2022-11-18T01:24:01;3.42;;;1.60;;
65328;SDS011;51941;52.210;5.158;2022-11-18T01:26:28;3.85;;;1.73;;
65328;SDS011;51941;52.210;5.158;2022-11-18T01:28:55;7.25;;;1.52;;
65328;SDS011;51941;52.210;5.158;2022-11-18T01:31:22;3.33;;;1.83;;
65328;SDS011;51941;52.210;5.158;2022-11-18T01:33:49;4.97;;;1.67;;
65328;SDS011;51941;52.210;5.158;2022-11-18T01:36:17;3.13;;;1.80;;
65328;SDS011;51941;52.210;5.158;2022-11-18T01:38:45;1.52;;;1.40;;
65328;SDS011;51941;52.210;5.158;2022-11-18T01:41:14;2.38;;;1.45;;
65328;SDS011;51941;52.210;5.158;2022-11-18T01:43:46;2.53;;;1.05;;
65328;SDS011;51941;52.210;5.158;2022-11-18T01:46:15;2.70;;;1.40;;
65328;SDS011;51941;52.210;5.158;2022-11-18T01:48:42;2.65;;;1.23;;
65328;SDS011;51941;52.210;5.158;2022-11-18T01:51:12;3.80;;;1.33;;
65328;SDS011;51941;52.210;5.158;2022-11-18T01:53:43;2.72;;;1.67;;
65328;SDS011;51941;52.210;5.158;2022-11-18T01:56:16;5.20;;;2.17;;
65328;SDS011;51941;52.210;5.158;2022-11-18T01:58:47;2.92;;;1.48;;
65328;SDS011;51941;52.210;5.158;2022-11-18T02:01:18;2.60;;;1.80;;
65328;SDS011;51941;52.210;5.158;2022-11-18T02:03:45;2.25;;;1.58;;
65328;SDS011;51941;52.210;5.158;2022-11-18T02:06:14;5.05;;;2.05;;
65328;SDS011;51941;52.210;5.158;2022-11-18T02:08:41;5.15;;;2.33;;
65328;SDS011;51941;52.210;5.158;2022-11-18T02:11:09;3.70;;;1.83;;
65328;SDS011;51941;52.210;5.158;2022-11-18T02:13:59;3.03;;;1.90;;
65328;SDS011;51941;52.210;5.158;2022-11-18T02:16:31;2.47;;;1.70;;
65328;SDS011;51941;52.210;5.158;2022-11-18T02:19:10;1.83;;;1.50;;
65328;SDS011;51941;52.210;5.158;2022-11-18T02:21:54;3.05;;;1.75;;
65328;SDS011;51941;52.210;5.158;2022-11-18T02:24:34;3.45;;;1.50;;
65328;SDS011;51941;52.210;5.158;2022-11-18T02:27:12;3.72;;;1.77;;
65328;SDS011;51941;52.210;5.158;2022-11-18T02:30:04;6.60;;;2.28;;
65328;SDS011;51941;52.210;5.158;2022-11-18T02:32:35;3.95;;;2.00;;
65328;SDS011;51941;52.210;5.158;2022-11-18T02:35:08;3.40;;;1.60;;
65328;SDS011;51941;52.210;5.158;2022-11-18T02:37:43;2.95;;;1.73;;
65328;SDS011;51941;52.210;5.158;2022-11-18T02:40:15;3.60;;;1.45;;
65328;SDS011;51941;52.210;5.158;2022-11-18T02:42:48;3.42;;;2.03;;
65328;SDS011;51941;52.210;5.158;2022-11-18T02:45:19;2.65;;;2.05;;
65328;SDS011;51941;52.210;5.158;2022-11-18T02:47:47;4.97;;;2.53;;
65328;SDS011;51941;52.210;5.158;2022-11-18T02:50:18;3.38;;;1.88;;
65328;SDS011;51941;52.210;5.158;2022-11-18T02:52:49;2.88;;;1.80;;
65328;SDS011;51941;52.210;5.158;2022-11-18T02:55:20;2.58;;;1.88;;
65328;SDS011;51941;52.210;5.158;2022-11-18T02:57:49;3.53;;;1.65;;
65328;SDS011;51941;52.210;5.158;2022-11-18T03:00:16;4.43;;;1.90;;
65328;SDS011;51941;52.210;5.158;2022-11-18T03:02:45;2.75;;;1.98;;
65328;SDS011;51941;52.210;5.158;2022-11-18T03:05:15;1.67;;;1.45;;
65328;SDS011;51941;52.210;5.158;2022-11-18T03:07:47;3.90;;;1.90;;
65328;SDS011;51941;52.210;5.158;2022-11-18T03:10:20;4.03;;;2.00;;
65328;SDS011;51941;52.210;5.158;2022-11-18T03:12:50;3.10;;;1.53;;
65328;SDS011;51941;52.210;5.158;2022-11-18T03:15:29;3.20;;;1.88;;
65328;SDS011;51941;52.210;5.158;2022-11-18T03:18:04;2.83;;;1.80;;
65328;SDS011;51941;52.210;5.158;2022-11-18T03:20:41;3.30;;;2.00;;
65328;SDS011;51941;52.210;5.158;2022-11-18T03:23:13;2.45;;;1.80;;
65328;SDS011;51941;52.210;5.158;2022-11-18T03:25:48;4.15;;;2.15;;
65328;SDS011;51941;52.210;5.158;2022-11-18T03:28:20;6.55;;;2.22;;
65328;SDS011;51941;52.210;5.158;2022-11-18T03:30:53;2.42;;;1.92;;
65328;SDS011;51941;52.210;5.158;2022-11-18T03:33:27;8.73;;;2.20;;
65328;SDS011;51941;52.210;5.158;2022-11-18T03:35:59;3.85;;;2.30;;
65328;SDS011;51941;52.210;5.158;2022-11-18T03:38:28;3.67;;;1.95;;
65328;SDS011;51941;52.210;5.158;2022-11-18T03:40:59;5.35;;;2.17;;
65328;SDS011;51941;52.210;5.158;2022-11-18T03:43:30;6.13;;;2.88;;
65328;SDS011;51941;52.210;5.158;2022-11-18T03:46:03;6.45;;;2.00;;
65328;SDS011;51941;52.210;5.158;2022-11-18T03:48:36;2.95;;;1.90;;
65328;SDS011;51941;52.210;5.158;2022-11-18T03:51:09;4.40;;;1.80;;
65328;SDS011;51941;52.210;5.158;2022-11-18T03:53:39;3.88;;;2.17;;
65328;SDS011;51941;52.210;5.158;2022-11-18T03:56:11;2.67;;;2.00;;
65328;SDS011;51941;52.210;5.158;2022-11-18T03:58:41;3.70;;;2.40;;
65328;SDS011;51941;52.210;5.158;2022-11-18T04:01:15;5.28;;;2.47;;
65328;SDS011;51941;52.210;5.158;2022-11-18T04:03:48;2.95;;;2.03;;
65328;SDS011;51941;52.210;5.158;2022-11-18T04:06:15;4.40;;;2.47;;
65328;SDS011;51941;52.210;5.158;2022-11-18T04:08:51;5.20;;;2.28;;
65328;SDS011;51941;52.210;5.158;2022-11-18T04:11:22;4.55;;;2.20;;
65328;SDS011;51941;52.210;5.158;2022-11-18T04:14:09;3.20;;;1.80;;
65328;SDS011;51941;52.210;5.158;2022-11-18T04:16:39;3.78;;;2.70;;
65328;SDS011;51941;52.210;5.158;2022-11-18T04:19:07;4.78;;;2.33;;
65328;SDS011;51941;52.210;5.158;2022-11-18T04:21:34;4.70;;;2.17;;
65328;SDS011;51941;52.210;5.158;2022-11-18T04:24:01;2.63;;;1.73;;
65328;SDS011;51941;52.210;5.158;2022-11-18T04:26:28;2.28;;;1.63;;
65328;SDS011;51941;52.210;5.158;2022-11-18T04:28:55;4.55;;;2.63;;
65328;SDS011;51941;52.210;5.158;2022-11-18T04:31:22;3.17;;;1.85;;
65328;SDS011;51941;52.210;5.158;2022-11-18T04:33:49;5.40;;;3.00;;
65328;SDS011;51941;52.210;5.158;2022-11-18T04:36:17;3.13;;;2.17;;
65328;SDS011;51941;52.210;5.158;2022-11-18T04:38:44;4.65;;;2.33;;
65328;SDS011;51941;52.210;5.158;2022-11-18T04:41:11;2.92;;;2.17;;
65328;SDS011;51941;52.210;5.158;2022-11-18T04:43:37;3.90;;;2.53;;
65328;SDS011;51941;52.210;5.158;2022-11-18T04:46:04;5.57;;;2.80;;
65328;SDS011;51941;52.210;5.158;2022-11-18T04:48:31;4.95;;;2.70;;
65328;SDS011;51941;52.210;5.158;2022-11-18T04:51:01;3.95;;;2.50;;
65328;SDS011;51941;52.210;5.158;2022-11-18T04:53:29;7.07;;;3.45;;
65328;SDS011;51941;52.210;5.158;2022-11-18T04:56:02;3.92;;;2.75;;
65328;SDS011;51941;52.210;5.158;2022-11-18T04:58:30;7.13;;;2.75;;
65328;SDS011;51941;52.210;5.158;2022-11-18T05:00:57;5.70;;;2.90;;
65328;SDS011;51941;52.210;5.158;2022-11-18T05:03:24;5.97;;;2.72;;
65328;SDS011;51941;52.210;5.158;2022-11-18T05:05:50;4.47;;;2.60;;
65328;SDS011;51941;52.210;5.158;2022-11-18T05:08:17;7.55;;;3.30;;
65328;SDS011;51941;52.210;5.158;2022-11-18T05:10:45;3.78;;;2.75;;
65328;SDS011;51941;52.210;5.158;2022-11-18T05:13:12;5.60;;;3.40;;
65328;SDS011;51941;52.210;5.158;2022-11-18T05:15:38;4.70;;;2.40;;
65328;SDS011;51941;52.210;5.158;2022-11-18T05:18:04;4.72;;;2.83;;
65328;SDS011;51941;52.210;5.158;2022-11-18T05:20:31;4.97;;;3.20;;
65328;SDS011;51941;52.210;5.158;2022-11-18T05:22:58;4.63;;;3.05;;
65328;SDS011;51941;52.210;5.158;2022-11-18T05:25:24;7.72;;;3.08;;
65328;SDS011;51941;52.210;5.158;2022-11-18T05:27:52;4.22;;;2.50;;
65328;SDS011;51941;52.210;5.158;2022-11-18T05:30:19;4.60;;;2.70;;
65328;SDS011;51941;52.210;5.158;2022-11-18T05:32:46;6.35;;;3.05;;
65328;SDS011;51941;52.210;5.158;2022-11-18T05:35:12;3.65;;;2.70;;
65328;SDS011;51941;52.210;5.158;2022-11-18T05:37:39;4.53;;;2.97;;
65328;SDS011;51941;52.210;5.158;2022-11-18T05:40:07;5.05;;;2.58;;
65328;SDS011;51941;52.210;5.158;2022-11-18T05:42:34;6.43;;;3.03;;
65328;SDS011;51941;52.210;5.158;2022-11-18T05:45:20;4.07;;;2.47;;
65328;SDS011;51941;52.210;5.158;2022-11-18T05:47:46;3.97;;;2.28;;
65328;SDS011;51941;52.210;5.158;2022-11-18T05:50:25;3.60;;;2.20;;
65328;SDS011;51941;52.210;5.158;2022-11-18T05:52:52;3.75;;;2.38;;
65328;SDS011;51941;52.210;5.158;2022-11-18T05:55:18;6.25;;;2.90;;
65328;SDS011;51941;52.210;5.158;2022-11-18T05:57:47;4.57;;;2.63;;
65328;SDS011;51941;52.210;5.158;2022-11-18T06:00:14;7.70;;;2.80;;
65328;SDS011;51941;52.210;5.158;2022-11-18T06:02:43;5.22;;;2.50;;
65328;SDS011;51941;52.210;5.158;2022-11-18T06:05:12;4.70;;;2.75;;
65328;SDS011;51941;52.210;5.158;2022-11-18T06:07:40;10.80;;;2.97;;
65328;SDS011;51941;52.210;5.158;2022-11-18T06:10:08;4.68;;;2.85;;
65328;SDS011;51941;52.210;5.158;2022-11-18T06:12:40;3.13;;;2.38;;
65328;SDS011;51941;52.210;5.158;2022-11-18T06:15:10;5.50;;;2.42;;
65328;SDS011;51941;52.210;5.158;2022-11-18T06:17:44;4.35;;;2.53;;
65328;SDS011;51941;52.210;5.158;2022-11-18T06:20:16;3.13;;;2.50;;
65328;SDS011;51941;52.210;5.158;2022-11-18T06:22:43;4.28;;;2.83;;
65328;SDS011;51941;52.210;5.158;2022-11-18T06:25:10;4.82;;;2.80;;
65328;SDS011;51941;52.210;5.158;2022-11-18T06:27:37;9.63;;;2.90;;
65328;SDS011;51941;52.210;5.158;2022-11-18T06:30:04;3.60;;;2.30;;
65328;SDS011;51941;52.210;5.158;2022-11-18T06:32:32;4.25;;;2.47;;
65328;SDS011;51941;52.210;5.158;2022-11-18T06:35:00;6.82;;;2.47;;
65328;SDS011;51941;52.210;5.158;2022-11-18T06:37:26;5.82;;;3.00;;
65328;SDS011;51941;52.210;5.158;2022-11-18T06:39:53;6.13;;;3.20;;
65328;SDS011;51941;52.210;5.158;2022-11-18T06:42:20;5.90;;;2.85;;
65328;SDS011;51941;52.210;5.158;2022-11-18T06:45:00;6.05;;;3.05;;
65328;SDS011;51941;52.210;5.158;2022-11-18T06:47:27;4.03;;;2.58;;
65328;SDS011;51941;52.210;5.158;2022-11-18T06:49:53;4.53;;;2.90;;
65328;SDS011;51941;52.210;5.158;2022-11-18T06:52:22;5.15;;;2.88;;
65328;SDS011;51941;52.210;5.158;2022-11-18T06:54:49;5.10;;;2.80;;
65328;SDS011;51941;52.210;5.158;2022-11-18T06:57:15;6.35;;;2.72;;
65328;SDS011;51941;52.210;5.158;2022-11-18T06:59:42;4.55;;;2.58;;
65328;SDS011;51941;52.210;5.158;2022-11-18T07:02:09;7.65;;;3.33;;
65328;SDS011;51941;52.210;5.158;2022-11-18T07:04:35;6.75;;;3.08;;
65328;SDS011;51941;52.210;5.158;2022-11-18T07:07:04;5.15;;;3.30;;
65328;SDS011;51941;52.210;5.158;2022-11-18T07:09:32;5.70;;;2.63;;
65328;SDS011;51941;52.210;5.158;2022-11-18T07:11:59;4.88;;;2.80;;
65328;SDS011;51941;52.210;5.158;2022-11-18T07:14:26;5.03;;;2.33;;
65328;SDS011;51941;52.210;5.158;2022-11-18T07:16:53;3.28;;;1.83;;
65328;SDS011;51941;52.210;5.158;2022-11-18T07:19:20;8.15;;;3.05;;
65328;SDS011;51941;52.210;5.158;2022-11-18T07:21:46;3.63;;;2.45;;
65328;SDS011;51941;52.210;5.158;2022-11-18T07:24:13;3.42;;;2.05;;
65328;SDS011;51941;52.210;5.158;2022-11-18T07:26:42;5.00;;;2.90;;
65328;SDS011;51941;52.210;5.158;2022-11-18T07:29:09;2.92;;;2.33;;
65328;SDS011;51941;52.210;5.158;2022-11-18T07:31:36;4.05;;;2.70;;
65328;SDS011;51941;52.210;5.158;2022-11-18T07:34:04;5.07;;;2.80;;
65328;SDS011;51941;52.210;5.158;2022-11-18T07:36:31;6.82;;;2.97;;
65328;SDS011;51941;52.210;5.158;2022-11-18T07:38:58;5.72;;;2.60;;
65328;SDS011;51941;52.210;5.158;2022-11-18T07:41:26;5.63;;;3.03;;
65328;SDS011;51941;52.210;5.158;2022-11-18T07:43:57;10.40;;;3.85;;
65328;SDS011;51941;52.210;5.158;2022-11-18T07:46:27;4.57;;;2.85;;
65328;SDS011;51941;52.210;5.158;2022-11-18T07:48:55;4.53;;;2.47;;
65328;SDS011;51941;52.210;5.158;2022-11-18T07:51:24;4.60;;;2.30;;
65328;SDS011;51941;52.210;5.158;2022-11-18T07:53:53;6.77;;;2.80;;
65328;SDS011;51941;52.210;5.158;2022-11-18T07:56:20;5.50;;;2.30;;
65328;SDS011;51941;52.210;5.158;2022-11-18T07:58:50;3.85;;;2.42;;
65328;SDS011;51941;52.210;5.158;2022-11-18T08:01:19;3.33;;;2.30;;
65328;SDS011;51941;52.210;5.158;2022-11-18T08:03:47;5.63;;;3.08;;
65328;SDS011;51941;52.210;5.158;2022-11-18T08:06:15;4.57;;;2.78;;
65328;SDS011;51941;52.210;5.158;2022-11-18T08:08:43;4.70;;;2.40;;
65328;SDS011;51941;52.210;5.158;2022-11-18T08:11:11;9.60;;;2.97;;
65328;SDS011;51941;52.210;5.158;2022-11-18T08:13:39;5.47;;;2.70;;
65328;SDS011;51941;52.210;5.158;2022-11-18T08:16:10;3.80;;;2.17;;
65328;SDS011;51941;52.210;5.158;2022-11-18T08:18:40;5.97;;;2.67;;
65328;SDS011;51941;52.210;5.158;2022-11-18T08:21:07;6.13;;;2.45;;
65328;SDS011;51941;52.210;5.158;2022-11-18T08:23:34;6.22;;;2.60;;
65328;SDS011;51941;52.210;5.158;2022-11-18T08:26:01;4.07;;;2.47;;
65328;SDS011;51941;52.210;5.158;2022-11-18T08:28:29;5.22;;;2.90;;
65328;SDS011;51941;52.210;5.158;2022-11-18T08:30:56;5.28;;;2.72;;
65328;SDS011;51941;52.210;5.158;2022-11-18T08:33:23;6.03;;;2.83;;
65328;SDS011;51941;52.210;5.158;2022-11-18T08:35:51;5.38;;;2.60;;
65328;SDS011;51941;52.210;5.158;2022-11-18T08:38:18;6.50;;;3.03;;
65328;SDS011;51941;52.210;5.158;2022-11-18T08:40:45;5.13;;;2.70;;
65328;SDS011;51941;52.210;5.158;2022-11-18T08:43:13;2.78;;;2.00;;
65328;SDS011;51941;52.210;5.158;2022-11-18T08:45:40;4.15;;;2.45;;
65328;SDS011;51941;52.210;5.158;2022-11-18T08:48:07;2.83;;;2.00;;
65328;SDS011;51941;52.210;5.158;2022-11-18T08:50:33;5.75;;;2.78;;
65328;SDS011;51941;52.210;5.158;2022-11-18T08:53:02;4.47;;;2.70;;
65328;SDS011;51941;52.210;5.158;2022-11-18T08:55:28;7.93;;;3.28;;
65328;SDS011;51941;52.210;5.158;2022-11-18T08:57:55;5.15;;;3.03;;
65328;SDS011;51941;52.210;5.158;2022-11-18T09:00:22;3.55;;;2.33;;
65328;SDS011;51941;52.210;5.158;2022-11-18T09:02:48;3.92;;;2.35;;
65328;SDS011;51941;52.210;5.158;2022-11-18T09:05:15;7.38;;;3.03;;
65328;SDS011;51941;52.210;5.158;2022-11-18T09:07:42;5.85;;;2.92;;
65328;SDS011;51941;52.210;5.158;2022-11-18T09:10:10;3.60;;;2.67;;
65328;SDS011;51941;52.210;5.158;2022-11-18T09:12:37;4.97;;;2.90;;
65328;SDS011;51941;52.210;5.158;2022-11-18T09:15:04;5.55;;;2.50;;
65328;SDS011;51941;52.210;5.158;2022-11-18T09:17:31;4.97;;;2.80;;
65328;SDS011;51941;52.210;5.158;2022-11-18T09:19:58;7.15;;;2.88;;
65328;SDS011;51941;52.210;5.158;2022-11-18T09:22:25;3.05;;;2.70;;
65328;SDS011;51941;52.210;5.158;2022-11-18T09:24:51;6.07;;;2.95;;
65328;SDS011;51941;52.210;5.158;2022-11-18T09:27:19;4.95;;;3.38;;
65328;SDS011;51941;52.210;5.158;2022-11-18T09:29:46;9.75;;;3.65;;
65328;SDS011;51941;52.210;5.158;2022-11-18T09:32:13;4.75;;;3.22;;
65328;SDS011;51941;52.210;5.158;2022-11-18T09:34:40;11.68;;;3.58;;
65328;SDS011;51941;52.210;5.158;2022-11-18T09:37:06;7.03;;;3.58;;
65328;SDS011;51941;52.210;5.158;2022-11-18T09:39:33;4.65;;;2.88;;
65328;SDS011;51941;52.210;5.158;2022-11-18T09:42:04;5.32;;;2.92;;
65328;SDS011;51941;52.210;5.158;2022-11-18T09:44:48;4.03;;;2.78;;
65328;SDS011;51941;52.210;5.158;2022-11-18T09:47:33;4.72;;;2.88;;
65328;SDS011;51941;52.210;5.158;2022-11-18T09:50:01;6.72;;;3.25;;
65328;SDS011;51941;52.210;5.158;2022-11-18T09:52:31;5.75;;;3.25;;
65328;SDS011;51941;52.210;5.158;2022-11-18T09:55:03;4.35;;;3.30;;
65328;SDS011;51941;52.210;5.158;2022-11-18T09:57:36;4.95;;;3.40;;
65328;SDS011;51941;52.210;5.158;2022-11-18T10:00:08;4.82;;;3.63;;
65328;SDS011;51941;52.210;5.158;2022-11-18T10:02:46;6.07;;;3.45;;
65328;SDS011;51941;52.210;5.158;2022-11-18T10:05:19;6.32;;;3.75;;
65328;SDS011;51941;52.210;5.158;2022-11-18T10:07:49;5.85;;;3.20;;
65328;SDS011;51941;52.210;5.158;2022-11-18T10:10:37;9.43;;;3.33;;
65328;SDS011;51941;52.210;5.158;2022-11-18T10:13:12;5.68;;;3.22;;
65328;SDS011;51941;52.210;5.158;2022-11-18T10:15:52;8.85;;;3.60;;
65328;SDS011;51941;52.210;5.158;2022-11-18T10:18:26;4.18;;;2.85;;
65328;SDS011;51941;52.210;5.158;2022-11-18T10:20:59;6.07;;;2.50;;
65328;SDS011;51941;52.210;5.158;2022-11-18T10:23:35;2.67;;;1.80;;
65328;SDS011;51941;52.210;5.158;2022-11-18T10:26:29;4.88;;;2.55;;
65328;SDS011;51941;52.210;5.158;2022-11-18T10:28:57;3.33;;;2.40;;
65328;SDS011;51941;52.210;5.158;2022-11-18T10:31:25;8.75;;;2.88;;
65328;SDS011;51941;52.210;5.158;2022-11-18T10:33:57;6.00;;;2.53;;
65328;SDS011;51941;52.210;5.158;2022-11-18T10:36:25;4.32;;;2.35;;
65328;SDS011;51941;52.210;5.158;2022-11-18T10:39:07;8.25;;;3.10;;
65328;SDS011;51941;52.210;5.158;2022-11-18T10:41:40;6.25;;;2.42;;
65328;SDS011;51941;52.210;5.158;2022-11-18T10:44:30;6.13;;;2.35;;
65328;SDS011;51941;52.210;5.158;2022-11-18T10:49:52;9.25;;;2.80;;
65328;SDS011;51941;52.210;5.158;2022-11-18T10:52:21;6.03;;;2.92;;
65328;SDS011;51941;52.210;5.158;2022-11-18T10:57:34;7.80;;;2.75;;
65328;SDS011;51941;52.210;5.158;2022-11-18T11:00:03;6.15;;;2.63;;
65328;SDS011;51941;52.210;5.158;2022-11-18T11:05:14;4.25;;;2.30;;
65328;SDS011;51941;52.210;5.158;2022-11-18T11:07:44;4.07;;;2.50;;
65328;SDS011;51941;52.210;5.158;2022-11-18T11:10:17;3.63;;;2.17;;
65328;SDS011;51941;52.210;5.158;2022-11-18T11:12:48;6.70;;;2.70;;
65328;SDS011;51941;52.210;5.158;2022-11-18T11:15:22;9.18;;;2.80;;
65328;SDS011;51941;52.210;5.158;2022-11-18T11:17:55;6.15;;;2.45;;
65328;SDS011;51941;52.210;5.158;2022-11-18T11:20:38;5.15;;;2.67;;
65328;SDS011;51941;52.210;5.158;2022-11-18T11:23:07;5.10;;;2.50;;
65328;SDS011;51941;52.210;5.158;2022-11-18T11:28:08;6.03;;;2.67;;
65328;SDS011;51941;52.210;5.158;2022-11-18T11:30:44;4.32;;;2.50;;
65328;SDS011;51941;52.210;5.158;2022-11-18T11:33:27;6.47;;;2.45;;
65328;SDS011;51941;52.210;5.158;2022-11-18T11:36:10;5.78;;;2.58;;
65328;SDS011;51941;52.210;5.158;2022-11-18T11:38:48;5.68;;;2.53;;
65328;SDS011;51941;52.210;5.158;2022-11-18T11:41:21;5.07;;;2.58;;
65328;SDS011;51941;52.210;5.158;2022-11-18T11:43:52;5.88;;;2.90;;
65328;SDS011;51941;52.210;5.158;2022-11-18T11:46:35;7.28;;;2.90;;
65328;SDS011;51941;52.210;5.158;2022-11-18T11:49:15;4.88;;;2.70;;
65328;SDS011;51941;52.210;5.158;2022-11-18T11:54:27;7.07;;;2.78;;
65328;SDS011;51941;52.210;5.158;2022-11-18T11:57:09;5.05;;;2.45;;
65328;SDS011;51941;52.210;5.158;2022-11-18T11:59:45;5.07;;;2.30;;
65328;SDS011;51941;52.210;5.158;2022-11-18T12:02:24;8.90;;;3.05;;
65328;SDS011;51941;52.210;5.158;2022-11-18T12:05:15;6.35;;;2.35;;
65328;SDS011;51941;52.210;5.158;2022-11-18T12:07:48;2.67;;;2.08;;
65328;SDS011;51941;52.210;5.158;2022-11-18T12:10:22;3.63;;;2.65;;
65328;SDS011;51941;52.210;5.158;2022-11-18T12:16:18;4.55;;;2.80;;
65328;SDS011;51941;52.210;5.158;2022-11-18T12:18:53;7.72;;;3.40;;
65328;SDS011;51941;52.210;5.158;2022-11-18T12:24:26;6.53;;;3.30;;
65328;SDS011;51941;52.210;5.158;2022-11-18T12:27:00;6.43;;;3.60;;
65328;SDS011;51941;52.210;5.158;2022-11-18T12:29:34;6.95;;;4.65;;
65328;SDS011;51941;52.210;5.158;2022-11-18T12:32:13;9.88;;;4.90;;
65328;SDS011;51941;52.210;5.158;2022-11-18T12:34:54;7.88;;;4.65;;
65328;SDS011;51941;52.210;5.158;2022-11-18T12:37:41;7.30;;;5.20;;
65328;SDS011;51941;52.210;5.158;2022-11-18T12:40:11;8.40;;;4.63;;
65328;SDS011;51941;52.210;5.158;2022-11-18T12:42:57;8.10;;;4.82;;
65328;SDS011;51941;52.210;5.158;2022-11-18T12:45:47;10.95;;;5.43;;
65328;SDS011;51941;52.210;5.158;2022-11-18T12:48:26;10.73;;;5.63;;
65328;SDS011;51941;52.210;5.158;2022-11-18T12:51:10;10.57;;;5.78;;
65328;SDS011;51941;52.210;5.158;2022-11-18T12:54:23;17.13;;;5.93;;
65328;SDS011;51941;52.210;5.158;2022-11-18T12:56:53;11.18;;;6.05;;
65328;SDS011;51941;52.210;5.158;2022-11-18T12:59:26;9.43;;;6.70;;
65328;SDS011;51941;52.210;5.158;2022-11-18T13:02:01;11.82;;;7.90;;
65328;SDS011;51941;52.210;5.158;2022-11-18T13:04:29;12.45;;;8.35;;
65328;SDS011;51941;52.210;5.158;2022-11-18T13:06:56;8.95;;;8.05;;
65328;SDS011;51941;52.210;5.158;2022-11-18T13:09:26;13.85;;;9.27;;
65328;SDS011;51941;52.210;5.158;2022-11-18T13:11:57;15.75;;;9.07;;
65328;SDS011;51941;52.210;5.158;2022-11-18T13:14:27;11.45;;;8.25;;
65328;SDS011;51941;52.210;5.158;2022-11-18T13:17:23;13.02;;;9.23;;
65328;SDS011;51941;52.210;5.158;2022-11-18T13:20:19;13.95;;;8.80;;
65328;SDS011;51941;52.210;5.158;2022-11-18T13:22:50;8.23;;;7.45;;
65328;SDS011;51941;52.210;5.158;2022-11-18T13:25:37;9.87;;;7.73;;
65328;SDS011;51941;52.210;5.158;2022-11-18T13:28:09;14.52;;;8.20;;
65328;SDS011;51941;52.210;5.158;2022-11-18T13:30:46;16.17;;;8.63;;
65328;SDS011;51941;52.210;5.158;2022-11-18T13:33:17;9.90;;;8.30;;
65328;SDS011;51941;52.210;5.158;2022-11-18T13:35:44;7.63;;;6.80;;
65328;SDS011;51941;52.210;5.158;2022-11-18T13:38:17;11.07;;;7.55;;
65328;SDS011;51941;52.210;5.158;2022-11-18T13:40:48;9.68;;;7.70;;
65328;SDS011;51941;52.210;5.158;2022-11-18T13:46:03;9.95;;;6.90;;
65328;SDS011;51941;52.210;5.158;2022-11-18T13:48:36;8.25;;;6.03;;
65328;SDS011;51941;52.210;5.158;2022-11-18T13:51:06;9.48;;;7.03;;
65328;SDS011;51941;52.210;5.158;2022-11-18T13:53:34;13.25;;;7.78;;
65328;SDS011;51941;52.210;5.158;2022-11-18T13:56:04;10.20;;;6.65;;
65328;SDS011;51941;52.210;5.158;2022-11-18T13:58:35;12.18;;;8.13;;
65328;SDS011;51941;52.210;5.158;2022-11-18T14:01:04;9.68;;;7.32;;
65328;SDS011;51941;52.210;5.158;2022-11-18T14:03:43;8.55;;;6.60;;
65328;SDS011;51941;52.210;5.158;2022-11-18T14:06:22;10.95;;;7.38;;
65328;SDS011;51941;52.210;5.158;2022-11-18T14:08:50;9.95;;;6.90;;
65328;SDS011;51941;52.210;5.158;2022-11-18T14:14:26;7.25;;;5.90;;
65328;SDS011;51941;52.210;5.158;2022-11-18T14:19:46;8.52;;;5.68;;
65328;SDS011;51941;52.210;5.158;2022-11-18T14:22:15;6.35;;;5.72;;
65328;SDS011;51941;52.210;5.158;2022-11-18T14:24:51;7.20;;;6.00;;
65328;SDS011;51941;52.210;5.158;2022-11-18T14:27:36;6.43;;;5.15;;
65328;SDS011;51941;52.210;5.158;2022-11-18T14:30:26;6.97;;;5.72;;
65328;SDS011;51941;52.210;5.158;2022-11-18T14:35:42;11.35;;;6.07;;
65328;SDS011;51941;52.210;5.158;2022-11-18T14:38:13;10.80;;;5.53;;
65328;SDS011;51941;52.210;5.158;2022-11-18T14:40:42;5.90;;;5.27;;
65328;SDS011;51941;52.210;5.158;2022-11-18T14:43:09;6.03;;;5.10;;
65328;SDS011;51941;52.210;5.158;2022-11-18T14:45:39;6.97;;;5.53;;
65328;SDS011;51941;52.210;5.158;2022-11-18T14:48:08;9.57;;;5.60;;
65328;SDS011;51941;52.210;5.158;2022-11-18T14:50:37;9.98;;;6.82;;
65328;SDS011;51941;52.210;5.158;2022-11-18T14:53:04;7.80;;;5.28;;
65328;SDS011;51941;52.210;5.158;2022-11-18T14:55:30;8.18;;;5.47;;
65328;SDS011;51941;52.210;5.158;2022-11-18T14:57:57;7.60;;;5.20;;
65328;SDS011;51941;52.210;5.158;2022-11-18T15:00:24;7.88;;;5.47;;
65328;SDS011;51941;52.210;5.158;2022-11-18T15:02:52;6.28;;;5.68;;
65328;SDS011;51941;52.210;5.158;2022-11-18T15:05:19;10.57;;;5.80;;
65328;SDS011;51941;52.210;5.158;2022-11-18T15:07:46;9.15;;;5.78;;
65328;SDS011;51941;52.210;5.158;2022-11-18T15:10:12;7.97;;;5.60;;
65328;SDS011;51941;52.210;5.158;2022-11-18T15:12:41;6.57;;;5.28;;
65328;SDS011;51941;52.210;5.158;2022-11-18T15:15:08;8.73;;;5.28;;
65328;SDS011;51941;52.210;5.158;2022-11-18T15:17:35;13.73;;;6.00;;
65328;SDS011;51941;52.210;5.158;2022-11-18T15:20:03;7.13;;;5.80;;
65328;SDS011;51941;52.210;5.158;2022-11-18T15:22:31;9.87;;;6.20;;
65328;SDS011;51941;52.210;5.158;2022-11-18T15:24:58;11.55;;;6.70;;
65328;SDS011;51941;52.210;5.158;2022-11-18T15:27:25;7.50;;;5.68;;
65328;SDS011;51941;52.210;5.158;2022-11-18T15:29:52;14.65;;;7.65;;
65328;SDS011;51941;52.210;5.158;2022-11-18T15:32:19;11.35;;;6.40;;
65328;SDS011;51941;52.210;5.158;2022-11-18T15:34:45;8.07;;;6.60;;
65328;SDS011;51941;52.210;5.158;2022-11-18T15:37:14;9.18;;;5.60;;
65328;SDS011;51941;52.210;5.158;2022-11-18T15:39:40;7.55;;;5.50;;